Weather at Paracín / Davidovac Airport

Public forecast

Using degrees Celsius for public forecast. Weather courtesy of forecast.io.

Closest aviation weather report (METAR) to Paracín / Davidovac Airport

Closest report is Nis Airport, 35.5 nm (65.8 km) SSE. Retrieved 2022/07/04 03:30 UTC (0 seconds ago):

LYNI 040330Z 19002KT CAVOK 19/19 Q1017 NOSIG

Closest aviation forecast (TAF) to Paracín / Davidovac Airport

Closest forecast is Nis Airport, 35.5 nm (65.8 km) SSE. Retrieved 2022-07-04 00:21 UTC (3 hours ago):

TAF LYNI 032300Z 0400/0424 08005KT CAVOK TX34/0413Z TN19/0403Z TEMPO 0413/0417 VRB15G25KT 5000 TSRA SCT035CB SCT040